createdAt,value
2022-08-20T00:02:16.559Z,92.70
2022-08-20T00:04:46.550Z,92.70
2022-08-20T00:07:15.311Z,92.50
2022-08-20T00:09:43.879Z,92.00
2022-08-20T00:12:13.750Z,92.10
2022-08-20T00:14:42.020Z,92.30
2022-08-20T00:17:10.196Z,91.80
2022-08-20T00:19:38.623Z,92.00
2022-08-20T00:22:08.245Z,92.10
2022-08-20T00:24:36.418Z,92.00
2022-08-20T00:27:04.832Z,92.20
2022-08-20T00:29:33.033Z,92.20
2022-08-20T00:32:01.630Z,92.30
2022-08-20T00:34:30.290Z,92.30
2022-08-20T00:36:58.401Z,92.30
2022-08-20T00:39:28.217Z,91.80
2022-08-20T00:41:56.305Z,92.20
2022-08-20T00:44:24.693Z,92.30
2022-08-20T00:46:54.134Z,92.40
2022-08-20T00:49:25.865Z,92.20
2022-08-20T00:51:58.698Z,92.30
2022-08-20T00:54:34.985Z,92.50
2022-08-20T00:57:12.467Z,92.70
2022-08-20T00:59:42.949Z,92.70
2022-08-20T01:02:15.151Z,92.60
2022-08-20T01:04:45.512Z,93.00
2022-08-20T01:07:13.725Z,93.20
2022-08-20T01:09:58.507Z,93.40
2022-08-20T01:12:29.519Z,93.70
2022-08-20T01:14:59.529Z,93.60
2022-08-20T01:17:32.502Z,93.90
2022-08-20T01:20:05.477Z,94.10
2022-08-20T01:22:59.148Z,93.90
2022-08-20T01:25:41.954Z,93.70
2022-08-20T01:28:11.373Z,93.80
2022-08-20T01:30:39.677Z,93.80
2022-08-20T01:33:07.848Z,93.90
2022-08-20T01:35:38.839Z,93.60
2022-08-20T01:38:08.367Z,93.70
2022-08-20T01:40:58.094Z,93.50
2022-08-20T01:43:26.784Z,93.60
2022-08-20T01:45:55.834Z,93.40
2022-08-20T01:48:24.169Z,93.60
2022-08-20T01:51:01.980Z,93.30
2022-08-20T01:53:34.712Z,93.30
2022-08-20T01:56:07.306Z,93.40
2022-08-20T01:58:38.835Z,93.60
2022-08-20T02:01:07.356Z,93.80
2022-08-20T02:03:39.741Z,93.70
2022-08-20T02:06:11.193Z,93.80
2022-08-20T02:08:39.432Z,93.80
2022-08-20T02:11:09.491Z,93.80
2022-08-20T02:13:40.876Z,94.00
2022-08-20T02:16:09.541Z,94.00
2022-08-20T02:18:37.972Z,94.00
2022-08-20T02:21:06.237Z,94.00
2022-08-20T02:23:34.479Z,94.10
2022-08-20T02:26:02.646Z,94.10
2022-08-20T02:28:32.378Z,94.20
2022-08-20T02:31:01.597Z,94.60
2022-08-20T02:33:29.959Z,94.40
2022-08-20T02:35:58.477Z,94.80
2022-08-20T02:38:26.942Z,94.40
2022-08-20T02:40:55.488Z,94.40
2022-08-20T02:43:23.696Z,94.30
2022-08-20T02:45:53.184Z,94.60
2022-08-20T02:48:23.203Z,94.90
2022-08-20T02:50:54.189Z,94.90
2022-08-20T02:53:22.511Z,95.10
2022-08-20T02:55:50.958Z,95.00
2022-08-20T02:58:20.365Z,95.80
2022-08-20T03:00:49.266Z,96.20
2022-08-20T03:03:22.729Z,97.20
2022-08-20T03:05:54.890Z,97.90
2022-08-20T03:08:24.214Z,99.70
2022-08-20T03:10:53.083Z,99.80
2022-08-20T03:13:22.925Z,99.60
2022-08-20T03:15:58.400Z,99.70
2022-08-20T03:18:29.931Z,99.50
2022-08-20T03:20:58.357Z,99.40
2022-08-20T03:23:27.246Z,99.70
2022-08-20T03:25:55.763Z,99.60
2022-08-20T03:28:24.084Z,99.90
2022-08-20T03:30:53.279Z,99.70
2022-08-20T03:33:22.712Z,99.70
2022-08-20T03:35:52.464Z,99.60
2022-08-20T03:38:33.115Z,99.30
2022-08-20T03:41:02.618Z,98.70
2022-08-20T03:43:31.733Z,98.80
2022-08-20T03:46:00.471Z,99.30
2022-08-20T03:48:30.257Z,99.10
2022-08-20T03:51:01.068Z,98.80
2022-08-20T03:53:31.933Z,98.80
2022-08-20T03:56:04.465Z,98.60
2022-08-20T03:58:35.614Z,98.50
2022-08-20T04:01:06.605Z,98.70
2022-08-20T04:03:35.613Z,98.50
2022-08-20T04:06:05.642Z,98.30
2022-08-20T04:08:34.542Z,98.30
2022-08-20T04:11:03.371Z,98.90
2022-08-20T04:13:32.371Z,98.90
2022-08-20T04:16:03.607Z,98.30
2022-08-20T04:18:33.046Z,98.20
2022-08-20T04:21:01.413Z,98.60
2022-08-20T04:23:31.607Z,98.60
2022-08-20T04:26:01.443Z,98.90
2022-08-20T04:28:30.336Z,99.00
2022-08-20T04:31:01.071Z,99.00
2022-08-20T04:33:34.117Z,99.00
2022-08-20T04:36:06.359Z,98.60
2022-08-20T04:38:50.028Z,98.80
2022-08-20T04:41:22.825Z,98.60
2022-08-20T04:43:54.533Z,98.30
2022-08-20T04:46:25.804Z,98.60
2022-08-20T04:48:54.849Z,98.30
2022-08-20T04:51:24.389Z,98.50
2022-08-20T04:53:56.431Z,98.50
2022-08-20T04:56:27.572Z,98.20
2022-08-20T04:58:58.065Z,98.20
2022-08-20T05:01:27.705Z,98.30
2022-08-20T05:03:57.251Z,98.30
2022-08-20T05:06:28.786Z,98.00
2022-08-20T05:09:00.325Z,98.00
2022-08-20T05:11:34.519Z,98.20
2022-08-20T05:14:07.773Z,98.10
2022-08-20T05:16:40.829Z,98.10
2022-08-20T05:19:12.045Z,98.00
2022-08-20T05:21:41.256Z,98.30
2022-08-20T05:24:12.258Z,98.10
2022-08-20T05:26:41.087Z,98.30
2022-08-20T05:29:09.483Z,98.30
2022-08-20T05:31:38.537Z,98.30
2022-08-20T05:34:10.329Z,98.30
2022-08-20T05:36:40.805Z,98.70
2022-08-20T05:39:11.212Z,98.80
2022-08-20T05:41:40.346Z,98.90
2022-08-20T05:44:13.563Z,98.80
2022-08-20T05:46:43.603Z,98.90
2022-08-20T05:49:15.625Z,98.80
2022-08-20T05:51:44.084Z,98.70
2022-08-20T05:54:14.703Z,98.90
2022-08-20T05:56:43.332Z,98.90
2022-08-20T05:59:12.718Z,98.70
2022-08-20T06:01:42.285Z,98.90
2022-08-20T06:04:26.920Z,99.10
2022-08-20T06:06:58.208Z,98.70
2022-08-20T06:09:32.225Z,98.10
2022-08-20T06:12:02.268Z,98.00
2022-08-20T06:14:30.683Z,97.80
2022-08-20T06:17:05.462Z,98.00
2022-08-20T06:19:34.847Z,98.10
2022-08-20T06:22:18.017Z,98.00
2022-08-20T06:24:53.533Z,98.00
2022-08-20T06:27:22.403Z,97.50
2022-08-20T06:29:51.099Z,97.40
2022-08-20T06:32:21.218Z,97.70
2022-08-20T06:35:01.973Z,97.00
2022-08-20T06:37:31.926Z,97.50
2022-08-20T06:40:06.171Z,97.40
2022-08-20T06:42:34.826Z,97.20
2022-08-20T06:45:05.803Z,97.50
2022-08-20T06:47:34.833Z,97.30
2022-08-20T06:50:03.182Z,97.00
2022-08-20T06:52:52.968Z,97.10
2022-08-20T06:55:21.953Z,97.50
2022-08-20T06:57:59.384Z,96.80
2022-08-20T07:00:28.989Z,96.80
2022-08-20T07:03:00.685Z,96.50
2022-08-20T07:05:29.608Z,97.20
2022-08-20T07:07:57.936Z,97.10
2022-08-20T07:10:28.755Z,97.00
2022-08-20T07:12:57.351Z,97.00
2022-08-20T07:15:27.064Z,96.50
2022-08-20T07:18:01.524Z,96.80
2022-08-20T07:20:31.792Z,97.10
2022-08-20T07:23:00.784Z,97.00
2022-08-20T07:25:32.026Z,96.40
2022-08-20T07:28:02.789Z,96.50
2022-08-20T07:30:57.125Z,96.90
2022-08-20T07:33:28.314Z,96.70
2022-08-20T07:35:57.194Z,96.80
2022-08-20T07:38:27.256Z,96.80
2022-08-20T07:40:59.646Z,96.70
2022-08-20T07:43:28.393Z,96.70
2022-08-20T07:46:00.776Z,96.60
2022-08-20T07:48:32.124Z,96.40
2022-08-20T07:51:03.751Z,96.20
2022-08-20T07:53:35.603Z,96.10
2022-08-20T07:56:07.912Z,96.20
2022-08-20T07:58:38.447Z,96.30
2022-08-20T08:01:08.084Z,96.10
2022-08-20T08:03:48.935Z,95.90
2022-08-20T08:06:28.267Z,96.00
2022-08-20T08:09:03.106Z,95.60
2022-08-20T08:11:34.531Z,96.10
2022-08-20T08:14:04.789Z,96.00
2022-08-20T08:16:35.356Z,95.50
2022-08-20T08:19:07.819Z,96.10
2022-08-20T08:21:36.336Z,96.10
2022-08-20T08:24:05.049Z,96.30
2022-08-20T08:26:34.749Z,96.20
2022-08-20T08:29:03.555Z,95.90
2022-08-20T08:31:31.663Z,95.40
2022-08-20T08:34:00.479Z,95.70
2022-08-20T08:36:28.684Z,96.00
2022-08-20T08:38:57.208Z,95.20
2022-08-20T08:41:31.391Z,95.50
2022-08-20T08:44:11.306Z,95.10
2022-08-20T08:46:42.131Z,95.20
2022-08-20T08:49:13.736Z,95.40
2022-08-20T08:51:46.304Z,95.30
2022-08-20T08:54:17.714Z,95.20
2022-08-20T08:56:49.845Z,95.30
2022-08-20T08:59:21.408Z,94.50
2022-08-20T09:01:54.753Z,94.70
2022-08-20T09:04:31.655Z,95.20
2022-08-20T09:07:02.950Z,94.40
2022-08-20T09:09:34.238Z,94.50
2022-08-20T09:12:07.243Z,93.80
2022-08-20T09:14:37.960Z,94.50
2022-08-20T09:17:07.061Z,95.10
2022-08-20T09:19:35.503Z,94.70
2022-08-20T09:22:09.682Z,93.90
2022-08-20T09:24:38.200Z,94.60
2022-08-20T09:27:07.521Z,94.30
2022-08-20T09:29:37.313Z,94.10
2022-08-20T09:32:07.724Z,94.80
2022-08-20T09:34:39.244Z,94.50
2022-08-20T09:37:08.277Z,94.70
2022-08-20T09:39:37.408Z,95.20
2022-08-20T09:42:10.274Z,95.00
2022-08-20T09:44:40.798Z,95.50
2022-08-20T09:47:09.813Z,96.10
2022-08-20T09:49:38.436Z,95.70
2022-08-20T09:52:10.219Z,95.40
2022-08-20T09:54:46.273Z,95.30
2022-08-20T09:57:16.579Z,95.10
2022-08-20T09:59:51.530Z,94.80
2022-08-20T10:02:20.052Z,95.20
2022-08-20T10:04:48.417Z,95.30
2022-08-20T10:07:16.671Z,95.20
2022-08-20T10:09:45.020Z,95.50
2022-08-20T10:12:13.533Z,95.20
2022-08-20T10:14:42.128Z,95.20
2022-08-20T10:17:12.115Z,95.20
2022-08-20T10:19:40.439Z,95.00
2022-08-20T10:22:08.968Z,95.00
2022-08-20T10:24:37.548Z,94.90
2022-08-20T10:27:06.409Z,95.40
2022-08-20T10:29:34.714Z,95.60
2022-08-20T10:32:13.087Z,95.80
2022-08-20T10:34:41.710Z,95.40
2022-08-20T10:37:10.505Z,95.80
2022-08-20T10:39:39.096Z,96.00
2022-08-20T10:42:07.652Z,96.20
2022-08-20T10:44:35.984Z,95.60
2022-08-20T10:47:20.761Z,95.80
2022-08-20T10:49:49.761Z,95.70
2022-08-20T10:52:17.997Z,95.70
2022-08-20T10:54:46.885Z,95.60
2022-08-20T10:57:17.107Z,96.00
2022-08-20T10:59:47.572Z,96.20
2022-08-20T11:02:18.565Z,95.60
2022-08-20T11:04:47.450Z,96.00
2022-08-20T11:07:18.496Z,96.20
2022-08-20T11:09:48.839Z,96.70
2022-08-20T11:12:18.023Z,96.60
2022-08-20T11:14:46.952Z,96.40
2022-08-20T11:17:21.672Z,96.50
2022-08-20T11:19:50.285Z,96.30
2022-08-20T11:22:19.215Z,96.20
2022-08-20T11:24:48.125Z,96.10
2022-08-20T11:27:21.115Z,96.50
2022-08-20T11:29:49.705Z,96.20
2022-08-20T11:32:19.370Z,96.60
2022-08-20T11:34:47.780Z,96.20
2022-08-20T11:37:18.254Z,96.40
2022-08-20T11:39:46.748Z,96.60
2022-08-20T11:42:15.316Z,96.80
2022-08-20T11:44:43.637Z,96.30
2022-08-20T11:47:23.517Z,96.60
2022-08-20T11:49:59.640Z,96.20
2022-08-20T11:52:29.226Z,95.80
2022-08-20T11:54:57.850Z,96.20
2022-08-20T11:57:28.901Z,96.20
2022-08-20T11:59:59.270Z,95.70
2022-08-20T12:02:29.895Z,95.60
2022-08-20T12:04:58.546Z,95.70
2022-08-20T12:07:27.287Z,95.70
2022-08-20T12:09:55.803Z,95.80
2022-08-20T12:12:24.620Z,95.70
2022-08-20T12:14:53.538Z,95.70
2022-08-20T12:17:26.852Z,95.70
2022-08-20T12:19:59.370Z,96.10
2022-08-20T12:22:28.063Z,96.10
2022-08-20T12:24:56.569Z,96.50
2022-08-20T12:27:28.484Z,96.50
2022-08-20T12:29:58.749Z,96.40
2022-08-20T12:32:29.721Z,97.10
2022-08-20T12:35:00.327Z,97.70
2022-08-20T12:37:31.402Z,97.00
2022-08-20T12:40:02.129Z,97.20
2022-08-20T12:42:31.515Z,97.10
2022-08-20T12:45:00.559Z,96.60
2022-08-20T12:47:30.880Z,97.00
2022-08-20T12:50:02.203Z,96.80
2022-08-20T12:52:32.128Z,97.30
2022-08-20T12:55:01.603Z,97.80
2022-08-20T12:57:31.805Z,97.30
2022-08-20T13:00:03.628Z,97.50
2022-08-20T13:02:32.309Z,98.00
2022-08-20T13:05:04.858Z,98.10
2022-08-20T13:07:33.998Z,98.20
2022-08-20T13:10:03.123Z,98.30
2022-08-20T13:12:31.556Z,98.10
2022-08-20T13:14:59.985Z,98.10
2022-08-20T13:17:38.259Z,98.20
2022-08-20T13:20:11.819Z,97.80
2022-08-20T13:22:40.194Z,97.80
2022-08-20T13:25:10.273Z,97.60
2022-08-20T13:27:41.235Z,97.40
2022-08-20T13:30:11.963Z,97.30
2022-08-20T13:32:40.388Z,97.30
2022-08-20T13:35:11.856Z,96.60
2022-08-20T13:37:41.578Z,96.80
2022-08-20T13:40:11.177Z,96.40
2022-08-20T13:42:40.244Z,95.50
2022-08-20T13:45:10.299Z,95.40
2022-08-20T13:47:41.076Z,95.60
2022-08-20T13:50:15.242Z,95.60
2022-08-20T13:52:44.854Z,95.60
2022-08-20T13:55:20.860Z,95.10
2022-08-20T13:57:50.992Z,95.20
2022-08-20T14:00:31.053Z,95.10
2022-08-20T14:03:00.613Z,95.20
2022-08-20T14:05:31.015Z,95.60
2022-08-20T14:08:07.544Z,95.80
2022-08-20T14:10:36.356Z,96.00
2022-08-20T14:13:05.764Z,96.20
2022-08-20T14:15:34.463Z,96.00
2022-08-20T14:18:03.052Z,95.60
2022-08-20T14:20:35.263Z,96.20
2022-08-20T14:23:07.086Z,96.70
2022-08-20T14:25:35.492Z,96.50
2022-08-20T14:28:12.088Z,96.10
2022-08-20T14:30:41.119Z,95.90
2022-08-20T14:33:09.727Z,95.50
2022-08-20T14:35:40.129Z,95.40
2022-08-20T14:38:09.352Z,95.30
2022-08-20T14:40:38.062Z,95.40
2022-08-20T14:43:07.578Z,95.30
2022-08-20T14:45:35.882Z,95.80
2022-08-20T14:48:09.168Z,95.70
2022-08-20T14:50:39.715Z,95.80
2022-08-20T14:53:08.887Z,95.70
2022-08-20T14:55:38.726Z,95.50
2022-08-20T14:58:11.111Z,95.30
2022-08-20T15:00:39.762Z,95.40
2022-08-20T15:03:08.270Z,95.30
2022-08-20T15:05:39.729Z,95.90
2022-08-20T15:08:10.833Z,95.00
2022-08-20T15:10:40.053Z,94.80
2022-08-20T15:13:08.928Z,94.90
2022-08-20T15:15:37.294Z,94.80
2022-08-20T15:18:05.619Z,94.60
2022-08-20T15:20:35.716Z,94.60
2022-08-20T15:23:06.150Z,94.20
2022-08-20T15:25:37.686Z,93.80
2022-08-20T15:28:08.934Z,94.10
2022-08-20T15:30:38.968Z,93.90
2022-08-20T15:33:07.385Z,94.10
2022-08-20T15:35:35.877Z,94.50
2022-08-20T15:38:05.489Z,94.30
2022-08-20T15:40:34.513Z,94.10
2022-08-20T15:43:04.944Z,94.10
2022-08-20T15:45:34.062Z,94.40
2022-08-20T15:48:09.344Z,94.20
2022-08-20T15:51:15.848Z,94.00
2022-08-20T15:53:54.892Z,94.10
2022-08-20T15:56:35.283Z,94.50
2022-08-20T15:59:17.294Z,94.20
2022-08-20T16:01:56.255Z,94.20
2022-08-20T16:05:04.616Z,94.40
2022-08-20T16:07:40.201Z,94.00
2022-08-20T16:10:17.414Z,94.50
2022-08-20T16:12:52.037Z,94.10
2022-08-20T16:15:24.865Z,94.40
2022-08-20T16:18:00.896Z,94.20
2022-08-20T16:20:35.637Z,94.30
2022-08-20T16:23:04.808Z,94.50
2022-08-20T16:25:44.902Z,94.10
2022-08-20T16:28:24.325Z,94.50
2022-08-20T16:30:58.132Z,94.60
2022-08-20T16:33:28.948Z,94.50
2022-08-20T16:36:02.720Z,94.70
2022-08-20T16:38:41.172Z,94.90
2022-08-20T16:41:15.681Z,94.70
2022-08-20T16:43:50.082Z,94.80
2022-08-20T16:46:21.719Z,94.50
2022-08-20T16:48:56.026Z,94.60
2022-08-20T16:51:39.027Z,94.40
2022-08-20T16:54:07.537Z,94.60
2022-08-20T16:56:39.319Z,94.40
2022-08-20T16:59:11.046Z,94.30
2022-08-20T17:01:40.295Z,94.50
2022-08-20T17:04:09.368Z,94.30
2022-08-20T17:06:40.886Z,94.60
2022-08-20T17:09:11.982Z,94.70
2022-08-20T17:11:42.303Z,94.70
2022-08-20T17:14:13.671Z,94.70
2022-08-20T17:16:45.635Z,94.80
2022-08-20T17:19:20.755Z,94.70
2022-08-20T17:21:50.456Z,94.80
2022-08-20T17:24:25.551Z,95.00
2022-08-20T17:27:00.856Z,95.20
2022-08-20T17:29:31.155Z,95.30
2022-08-20T17:32:02.305Z,95.30
2022-08-20T17:34:32.869Z,95.20
2022-08-20T17:37:09.004Z,95.00
2022-08-20T17:39:46.791Z,94.70
2022-08-20T17:42:20.540Z,94.80
2022-08-20T17:44:52.589Z,94.80
2022-08-20T17:47:32.057Z,94.90
2022-08-20T17:50:05.862Z,95.10
2022-08-20T17:52:40.997Z,95.50
2022-08-20T17:55:11.991Z,95.40
2022-08-20T17:57:46.223Z,95.50
2022-08-20T18:00:23.306Z,95.50
2022-08-20T18:02:54.236Z,95.50
2022-08-20T18:05:23.044Z,95.70
2022-08-20T18:08:08.667Z,95.70
2022-08-20T18:10:43.409Z,96.00
2022-08-20T18:13:18.874Z,95.90
2022-08-20T18:15:53.908Z,96.00
2022-08-20T18:18:32.310Z,96.10
2022-08-20T18:21:31.130Z,96.30
2022-08-20T18:24:04.318Z,96.40
2022-08-20T18:26:37.942Z,96.50
2022-08-20T18:29:15.132Z,96.60
2022-08-20T18:31:46.889Z,96.70
2022-08-20T18:34:18.245Z,96.80
2022-08-20T18:36:56.879Z,96.80
2022-08-20T18:39:28.284Z,96.90
2022-08-20T18:42:00.794Z,96.90
2022-08-20T18:44:40.096Z,97.00
2022-08-20T18:47:21.830Z,97.20
2022-08-20T18:50:02.228Z,97.20
2022-08-20T18:52:32.962Z,97.30
2022-08-20T18:55:04.449Z,97.30
2022-08-20T18:57:41.338Z,97.40
2022-08-20T19:00:16.871Z,97.50
2022-08-20T19:02:56.462Z,97.40
2022-08-20T19:05:32.102Z,97.50
2022-08-20T19:08:03.615Z,97.50
2022-08-20T19:10:50.250Z,97.40
2022-08-20T19:13:42.234Z,97.50
2022-08-20T19:16:17.628Z,97.50
2022-08-20T19:18:50.638Z,97.50
2022-08-20T19:21:23.162Z,97.70
2022-08-20T19:23:57.150Z,96.80
2022-08-20T19:26:29.360Z,96.80
2022-08-20T19:29:01.561Z,97.00
2022-08-20T19:31:33.262Z,96.60
2022-08-20T19:34:07.284Z,97.50
2022-08-20T19:36:56.020Z,98.10
2022-08-20T19:39:26.651Z,98.70
2022-08-20T19:41:58.952Z,99.20
2022-08-20T19:44:33.765Z,99.40
2022-08-20T19:47:04.576Z,99.70
2022-08-20T19:49:43.223Z,99.70
2022-08-20T19:52:28.659Z,99.90
2022-08-20T19:55:03.624Z,99.90
2022-08-20T19:57:32.721Z,99.90
2022-08-20T20:00:05.736Z,99.90
2022-08-20T20:02:36.322Z,99.90
2022-08-20T20:05:07.699Z,99.90
2022-08-20T20:07:40.248Z,99.90
2022-08-20T20:10:11.777Z,99.90
2022-08-20T20:12:40.865Z,99.90
2022-08-20T20:15:09.812Z,99.90
2022-08-20T20:17:39.817Z,99.90
2022-08-20T20:20:23.401Z,99.90
2022-08-20T20:22:55.762Z,99.90
2022-08-20T20:25:37.234Z,99.90
2022-08-20T20:28:11.640Z,99.90
2022-08-20T20:30:41.556Z,99.90
2022-08-20T20:33:18.682Z,99.90
2022-08-20T20:35:47.971Z,99.90
2022-08-20T20:38:27.977Z,99.90
2022-08-20T20:40:58.296Z,99.90
2022-08-20T20:43:29.841Z,99.90
2022-08-20T20:46:03.525Z,99.90
2022-08-20T20:48:43.025Z,99.90
2022-08-20T20:51:23.151Z,99.90
2022-08-20T20:53:54.961Z,99.90
2022-08-20T20:56:28.542Z,99.90
2022-08-20T20:58:57.175Z,99.90
2022-08-20T21:01:34.504Z,99.90
2022-08-20T21:04:15.586Z,99.90
2022-08-20T21:06:44.387Z,99.90
2022-08-20T21:09:13.197Z,99.90
2022-08-20T21:11:41.427Z,99.90
2022-08-20T21:14:09.871Z,99.90
2022-08-20T21:16:38.139Z,99.90
2022-08-20T21:19:07.875Z,99.90
2022-08-20T21:21:38.383Z,99.90
2022-08-20T21:24:07.896Z,99.90
2022-08-20T21:26:36.913Z,99.90
2022-08-20T21:29:07.094Z,99.90
2022-08-20T21:31:39.714Z,99.90
2022-08-20T21:34:12.639Z,99.90
2022-08-20T21:36:43.033Z,99.90
2022-08-20T21:39:11.844Z,99.90
2022-08-20T21:41:42.687Z,99.90
2022-08-20T21:44:13.791Z,99.90
2022-08-20T21:46:43.890Z,99.90
2022-08-20T21:49:12.295Z,99.90
2022-08-20T21:51:42.090Z,99.90
2022-08-20T21:54:10.313Z,99.90
2022-08-20T21:56:39.343Z,99.90
2022-08-20T21:59:09.301Z,99.90
2022-08-20T22:01:38.779Z,99.90
2022-08-20T22:04:07.442Z,99.90
2022-08-20T22:06:35.759Z,99.90
2022-08-20T22:09:05.662Z,99.90
2022-08-20T22:11:34.605Z,99.90
2022-08-20T22:14:03.426Z,99.90
2022-08-20T22:16:31.960Z,99.90
2022-08-20T22:19:00.206Z,99.90
2022-08-20T22:21:31.854Z,99.90
2022-08-20T22:24:01.600Z,99.90
2022-08-20T22:26:32.530Z,99.90
2022-08-20T22:29:01.066Z,99.90
2022-08-20T22:31:32.662Z,99.90
2022-08-20T22:34:01.573Z,99.90
2022-08-20T22:36:30.299Z,99.90
2022-08-20T22:38:58.909Z,99.90
2022-08-20T22:41:27.301Z,99.90
2022-08-20T22:43:57.479Z,99.90
2022-08-20T22:46:27.733Z,99.90
2022-08-20T22:48:56.942Z,99.90
2022-08-20T22:51:28.943Z,99.90
2022-08-20T22:53:59.064Z,99.90
2022-08-20T22:56:30.026Z,99.90
2022-08-20T22:59:00.274Z,99.90
2022-08-20T23:01:30.396Z,99.90
2022-08-20T23:04:04.916Z,99.90
2022-08-20T23:06:33.309Z,99.90
2022-08-20T23:09:01.514Z,99.90
2022-08-20T23:11:31.450Z,99.90
2022-08-20T23:14:01.138Z,99.90
2022-08-20T23:16:29.461Z,99.90
2022-08-20T23:18:57.686Z,99.90
2022-08-20T23:21:26.584Z,99.90
2022-08-20T23:23:54.894Z,99.90
2022-08-20T23:26:23.859Z,99.90
2022-08-20T23:28:52.118Z,99.90
2022-08-20T23:31:21.958Z,99.90
2022-08-20T23:33:50.515Z,99.90
2022-08-20T23:36:21.653Z,99.90
2022-08-20T23:38:50.648Z,99.90
2022-08-20T23:41:19.705Z,99.90
2022-08-20T23:43:47.988Z,99.90
2022-08-20T23:46:16.212Z,99.90
2022-08-20T23:48:46.014Z,99.90
2022-08-20T23:51:14.308Z,99.90
2022-08-20T23:53:42.724Z,99.90
2022-08-20T23:56:10.939Z,99.90
2022-08-20T23:58:39.747Z,99.90
